sensor_id;sensor_type;location;lat;lon;timestamp;temperature;humidity
19555;DHT22;9924;50.828;6.440;2023-11-19T00:00:43;12.50;99.90
19555;DHT22;9924;50.828;6.440;2023-11-19T00:03:09;12.60;99.90
19555;DHT22;9924;50.828;6.440;2023-11-19T00:05:38;12.60;99.90
19555;DHT22;9924;50.828;6.440;2023-11-19T00:08:04;12.60;99.90
19555;DHT22;9924;50.828;6.440;2023-11-19T00:10:31;12.60;99.90
19555;DHT22;9924;50.828;6.440;2023-11-19T00:12:57;12.70;99.90
19555;DHT22;9924;50.828;6.440;2023-11-19T00:15:23;12.60;99.90
19555;DHT22;9924;50.828;6.440;2023-11-19T00:17:50;12.60;99.90
19555;DHT22;9924;50.828;6.440;2023-11-19T00:20:20;12.60;99.90
19555;DHT22;9924;50.828;6.440;2023-11-19T00:22:49;12.70;99.90
19555;DHT22;9924;50.828;6.440;2023-11-19T00:25:18;12.70;99.90
19555;DHT22;9924;50.828;6.440;2023-11-19T00:27:44;12.70;99.90
19555;DHT22;9924;50.828;6.440;2023-11-19T00:30:11;12.70;99.90
19555;DHT22;9924;50.828;6.440;2023-11-19T00:32:37;12.70;99.90
19555;DHT22;9924;50.828;6.440;2023-11-19T00:35:05;12.70;99.90
19555;DHT22;9924;50.828;6.440;2023-11-19T00:37:31;12.70;99.90
19555;DHT22;9924;50.828;6.440;2023-11-19T00:39:57;12.70;99.90
19555;DHT22;9924;50.828;6.440;2023-11-19T00:42:24;12.70;99.90
19555;DHT22;9924;50.828;6.440;2023-11-19T00:44:50;12.70;99.90
19555;DHT22;9924;50.828;6.440;2023-11-19T00:47:16;12.70;99.90
19555;DHT22;9924;50.828;6.440;2023-11-19T00:49:42;12.70;99.90
19555;DHT22;9924;50.828;6.440;2023-11-19T00:52:08;12.70;99.90
19555;DHT22;9924;50.828;6.440;2023-11-19T00:54:34;12.70;99.90
19555;DHT22;9924;50.828;6.440;2023-11-19T00:57:00;12.70;99.90
19555;DHT22;9924;50.828;6.440;2023-11-19T00:59:27;12.70;99.90
19555;DHT22;9924;50.828;6.440;2023-11-19T01:01:54;12.70;99.90
19555;DHT22;9924;50.828;6.440;2023-11-19T01:04:20;12.70;99.90
19555;DHT22;9924;50.828;6.440;2023-11-19T01:06:46;12.70;99.90
19555;DHT22;9924;50.828;6.440;2023-11-19T01:09:11;12.70;99.90
19555;DHT22;9924;50.828;6.440;2023-11-19T01:11:37;12.70;99.90
19555;DHT22;9924;50.828;6.440;2023-11-19T01:14:03;12.70;99.90
19555;DHT22;9924;50.828;6.440;2023-11-19T01:16:29;12.70;99.90
19555;DHT22;9924;50.828;6.440;2023-11-19T01:18:55;12.70;99.90
19555;DHT22;9924;50.828;6.440;2023-11-19T01:21:21;12.70;99.90
19555;DHT22;9924;50.828;6.440;2023-11-19T01:23:48;12.70;99.90
19555;DHT22;9924;50.828;6.440;2023-11-19T01:26:13;12.70;99.90
19555;DHT22;9924;50.828;6.440;2023-11-19T01:28:40;12.70;99.90
19555;DHT22;9924;50.828;6.440;2023-11-19T01:31:08;12.70;99.90
19555;DHT22;9924;50.828;6.440;2023-11-19T01:33:36;12.70;99.90
19555;DHT22;9924;50.828;6.440;2023-11-19T01:36:02;12.70;99.90
19555;DHT22;9924;50.828;6.440;2023-11-19T01:38:28;12.70;99.90
19555;DHT22;9924;50.828;6.440;2023-11-19T01:40:57;12.70;99.90
19555;DHT22;9924;50.828;6.440;2023-11-19T01:43:35;12.80;99.90
19555;DHT22;9924;50.828;6.440;2023-11-19T01:46:02;12.80;99.90
19555;DHT22;9924;50.828;6.440;2023-11-19T01:48:29;12.80;99.90
19555;DHT22;9924;50.828;6.440;2023-11-19T01:50:56;12.80;99.90
19555;DHT22;9924;50.828;6.440;2023-11-19T01:53:22;12.80;99.90
19555;DHT22;9924;50.828;6.440;2023-11-19T01:55:49;12.80;99.90
19555;DHT22;9924;50.828;6.440;2023-11-19T01:58:15;12.80;99.90
19555;DHT22;9924;50.828;6.440;2023-11-19T02:00:43;12.80;99.90
19555;DHT22;9924;50.828;6.440;2023-11-19T02:03:10;12.80;99.90
19555;DHT22;9924;50.828;6.440;2023-11-19T02:05:37;12.80;99.90
19555;DHT22;9924;50.828;6.440;2023-11-19T02:08:04;12.80;99.90
19555;DHT22;9924;50.828;6.440;2023-11-19T02:10:30;12.90;99.90
19555;DHT22;9924;50.828;6.440;2023-11-19T02:12:58;12.80;99.90
19555;DHT22;9924;50.828;6.440;2023-11-19T02:15:24;12.80;99.90
19555;DHT22;9924;50.828;6.440;2023-11-19T02:17:50;12.70;99.90
19555;DHT22;9924;50.828;6.440;2023-11-19T02:20:17;12.70;99.90
19555;DHT22;9924;50.828;6.440;2023-11-19T02:22:48;12.70;99.90
19555;DHT22;9924;50.828;6.440;2023-11-19T02:25:30;12.70;99.90
19555;DHT22;9924;50.828;6.440;2023-11-19T02:28:01;12.70;99.90
19555;DHT22;9924;50.828;6.440;2023-11-19T02:30:27;12.70;99.90
19555;DHT22;9924;50.828;6.440;2023-11-19T02:32:57;12.60;99.90
19555;DHT22;9924;50.828;6.440;2023-11-19T02:35:27;12.60;99.90
19555;DHT22;9924;50.828;6.440;2023-11-19T02:37:56;12.60;99.90
19555;DHT22;9924;50.828;6.440;2023-11-19T02:40:22;12.60;99.90
19555;DHT22;9924;50.828;6.440;2023-11-19T02:42:53;12.60;99.90
19555;DHT22;9924;50.828;6.440;2023-11-19T02:45:19;12.60;99.90
19555;DHT22;9924;50.828;6.440;2023-11-19T02:47:47;12.60;99.90
19555;DHT22;9924;50.828;6.440;2023-11-19T02:50:13;12.60;99.90
19555;DHT22;9924;50.828;6.440;2023-11-19T02:52:42;12.50;99.90
19555;DHT22;9924;50.828;6.440;2023-11-19T02:55:10;12.50;99.90
19555;DHT22;9924;50.828;6.440;2023-11-19T02:57:41;12.50;99.90
19555;DHT22;9924;50.828;6.440;2023-11-19T03:00:21;12.60;99.90
19555;DHT22;9924;50.828;6.440;2023-11-19T03:02:57;12.50;99.90
19555;DHT22;9924;50.828;6.440;2023-11-19T03:05:31;12.50;99.90
19555;DHT22;9924;50.828;6.440;2023-11-19T03:07:57;12.50;99.90
19555;DHT22;9924;50.828;6.440;2023-11-19T03:10:23;12.50;99.90
19555;DHT22;9924;50.828;6.440;2023-11-19T03:12:49;12.50;99.90
19555;DHT22;9924;50.828;6.440;2023-11-19T03:15:15;12.50;99.90
19555;DHT22;9924;50.828;6.440;2023-11-19T03:17:42;12.50;99.90
19555;DHT22;9924;50.828;6.440;2023-11-19T03:20:10;12.50;99.90
19555;DHT22;9924;50.828;6.440;2023-11-19T03:22:39;12.50;99.90
19555;DHT22;9924;50.828;6.440;2023-11-19T03:25:07;12.50;99.90
19555;DHT22;9924;50.828;6.440;2023-11-19T03:27:37;12.50;99.90
19555;DHT22;9924;50.828;6.440;2023-11-19T03:30:10;12.50;99.90
19555;DHT22;9924;50.828;6.440;2023-11-19T03:32:36;12.50;99.90
19555;DHT22;9924;50.828;6.440;2023-11-19T03:35:02;12.50;99.90
19555;DHT22;9924;50.828;6.440;2023-11-19T03:37:30;12.60;99.90
19555;DHT22;9924;50.828;6.440;2023-11-19T03:39:57;12.60;99.90
19555;DHT22;9924;50.828;6.440;2023-11-19T03:42:28;12.60;99.90
19555;DHT22;9924;50.828;6.440;2023-11-19T03:44:56;12.70;99.90
19555;DHT22;9924;50.828;6.440;2023-11-19T03:47:22;12.70;99.90
19555;DHT22;9924;50.828;6.440;2023-11-19T03:49:51;12.80;99.90
19555;DHT22;9924;50.828;6.440;2023-11-19T03:52:18;12.70;99.90
19555;DHT22;9924;50.828;6.440;2023-11-19T03:54:44;12.70;99.90
19555;DHT22;9924;50.828;6.440;2023-11-19T03:57:14;12.70;99.90
19555;DHT22;9924;50.828;6.440;2023-11-19T03:59:41;12.70;99.90
19555;DHT22;9924;50.828;6.440;2023-11-19T04:02:07;12.70;99.90
19555;DHT22;9924;50.828;6.440;2023-11-19T04:04:33;12.60;99.90
19555;DHT22;9924;50.828;6.440;2023-11-19T04:07:00;12.60;99.90
19555;DHT22;9924;50.828;6.440;2023-11-19T04:09:26;12.60;99.90
19555;DHT22;9924;50.828;6.440;2023-11-19T04:11:52;12.60;99.90
19555;DHT22;9924;50.828;6.440;2023-11-19T04:14:18;12.50;99.90
19555;DHT22;9924;50.828;6.440;2023-11-19T04:16:44;12.50;99.90
19555;DHT22;9924;50.828;6.440;2023-11-19T04:19:11;12.50;99.90
19555;DHT22;9924;50.828;6.440;2023-11-19T04:21:37;12.40;99.90
19555;DHT22;9924;50.828;6.440;2023-11-19T04:24:03;12.40;99.90
19555;DHT22;9924;50.828;6.440;2023-11-19T04:26:28;12.30;99.90
19555;DHT22;9924;50.828;6.440;2023-11-19T04:28:54;12.30;99.90
19555;DHT22;9924;50.828;6.440;2023-11-19T04:31:20;12.40;99.90
19555;DHT22;9924;50.828;6.440;2023-11-19T04:33:45;12.30;99.90
19555;DHT22;9924;50.828;6.440;2023-11-19T04:36:12;12.40;99.90
19555;DHT22;9924;50.828;6.440;2023-11-19T04:38:39;12.30;99.90
19555;DHT22;9924;50.828;6.440;2023-11-19T04:41:06;12.30;99.90
19555;DHT22;9924;50.828;6.440;2023-11-19T04:43:32;12.30;99.90
19555;DHT22;9924;50.828;6.440;2023-11-19T04:45:58;12.30;99.90
19555;DHT22;9924;50.828;6.440;2023-11-19T04:48:24;12.30;99.90
19555;DHT22;9924;50.828;6.440;2023-11-19T04:50:50;12.30;99.90
19555;DHT22;9924;50.828;6.440;2023-11-19T04:53:19;12.30;99.90
19555;DHT22;9924;50.828;6.440;2023-11-19T04:55:45;12.20;99.90
19555;DHT22;9924;50.828;6.440;2023-11-19T04:58:11;12.20;99.90
19555;DHT22;9924;50.828;6.440;2023-11-19T05:00:37;12.10;99.90
19555;DHT22;9924;50.828;6.440;2023-11-19T05:03:02;12.10;99.90
19555;DHT22;9924;50.828;6.440;2023-11-19T05:05:28;12.20;99.90
19555;DHT22;9924;50.828;6.440;2023-11-19T05:07:54;12.20;99.90
19555;DHT22;9924;50.828;6.440;2023-11-19T05:10:20;12.20;99.90
19555;DHT22;9924;50.828;6.440;2023-11-19T05:12:46;12.20;99.90
19555;DHT22;9924;50.828;6.440;2023-11-19T05:15:12;12.20;99.90
19555;DHT22;9924;50.828;6.440;2023-11-19T05:17:38;12.20;99.90
19555;DHT22;9924;50.828;6.440;2023-11-19T05:20:05;12.20;99.90
19555;DHT22;9924;50.828;6.440;2023-11-19T05:22:31;12.20;99.90
19555;DHT22;9924;50.828;6.440;2023-11-19T05:24:57;12.20;99.90
19555;DHT22;9924;50.828;6.440;2023-11-19T05:27:23;12.20;99.90
19555;DHT22;9924;50.828;6.440;2023-11-19T05:29:50;12.30;99.90
19555;DHT22;9924;50.828;6.440;2023-11-19T05:32:15;12.20;99.90
19555;DHT22;9924;50.828;6.440;2023-11-19T05:34:41;12.20;99.90
19555;DHT22;9924;50.828;6.440;2023-11-19T05:37:07;12.20;99.90
19555;DHT22;9924;50.828;6.440;2023-11-19T05:39:35;12.20;99.90
19555;DHT22;9924;50.828;6.440;2023-11-19T05:42:01;12.20;99.90
19555;DHT22;9924;50.828;6.440;2023-11-19T05:44:27;12.20;99.90
19555;DHT22;9924;50.828;6.440;2023-11-19T05:46:52;12.30;99.90
19555;DHT22;9924;50.828;6.440;2023-11-19T05:49:18;12.30;99.90
19555;DHT22;9924;50.828;6.440;2023-11-19T05:51:44;12.30;99.90
19555;DHT22;9924;50.828;6.440;2023-11-19T05:54:10;12.30;99.90
19555;DHT22;9924;50.828;6.440;2023-11-19T05:56:36;12.30;99.90
19555;DHT22;9924;50.828;6.440;2023-11-19T05:59:02;12.30;99.90
19555;DHT22;9924;50.828;6.440;2023-11-19T06:01:43;12.30;99.90
19555;DHT22;9924;50.828;6.440;2023-11-19T06:04:10;12.30;99.90
19555;DHT22;9924;50.828;6.440;2023-11-19T06:06:36;12.30;99.90
19555;DHT22;9924;50.828;6.440;2023-11-19T06:09:03;12.30;99.90
19555;DHT22;9924;50.828;6.440;2023-11-19T06:11:29;12.30;99.90
19555;DHT22;9924;50.828;6.440;2023-11-19T06:13:55;12.30;99.90
19555;DHT22;9924;50.828;6.440;2023-11-19T06:16:22;12.30;99.90
19555;DHT22;9924;50.828;6.440;2023-11-19T06:18:48;12.20;99.90
19555;DHT22;9924;50.828;6.440;2023-11-19T06:21:14;12.30;99.90
19555;DHT22;9924;50.828;6.440;2023-11-19T06:23:40;12.30;99.90
19555;DHT22;9924;50.828;6.440;2023-11-19T06:26:06;12.30;99.90
19555;DHT22;9924;50.828;6.440;2023-11-19T06:28:32;12.30;99.90
19555;DHT22;9924;50.828;6.440;2023-11-19T06:30:57;12.20;99.90
19555;DHT22;9924;50.828;6.440;2023-11-19T06:33:24;12.20;99.90
19555;DHT22;9924;50.828;6.440;2023-11-19T06:35:50;12.10;99.90
19555;DHT22;9924;50.828;6.440;2023-11-19T06:38:16;12.10;99.90
19555;DHT22;9924;50.828;6.440;2023-11-19T06:40:42;12.00;99.90
19555;DHT22;9924;50.828;6.440;2023-11-19T06:43:08;12.00;99.90
19555;DHT22;9924;50.828;6.440;2023-11-19T06:45:39;12.00;99.90
19555;DHT22;9924;50.828;6.440;2023-11-19T06:48:05;12.00;99.90
19555;DHT22;9924;50.828;6.440;2023-11-19T06:50:32;12.00;99.90
19555;DHT22;9924;50.828;6.440;2023-11-19T06:52:59;12.00;99.90
19555;DHT22;9924;50.828;6.440;2023-11-19T06:55:26;12.00;99.90
19555;DHT22;9924;50.828;6.440;2023-11-19T06:57:52;12.00;99.90
19555;DHT22;9924;50.828;6.440;2023-11-19T07:00:18;12.00;99.90
19555;DHT22;9924;50.828;6.440;2023-11-19T07:02:44;12.00;99.90
19555;DHT22;9924;50.828;6.440;2023-11-19T07:05:11;12.00;99.90
19555;DHT22;9924;50.828;6.440;2023-11-19T07:07:39;12.00;99.90
19555;DHT22;9924;50.828;6.440;2023-11-19T07:10:06;12.00;99.90
19555;DHT22;9924;50.828;6.440;2023-11-19T07:12:35;11.90;99.90
19555;DHT22;9924;50.828;6.440;2023-11-19T07:15:01;11.90;99.90
19555;DHT22;9924;50.828;6.440;2023-11-19T07:17:30;11.80;99.90
19555;DHT22;9924;50.828;6.440;2023-11-19T07:19:56;11.90;99.90
19555;DHT22;9924;50.828;6.440;2023-11-19T07:22:25;11.80;99.90
19555;DHT22;9924;50.828;6.440;2023-11-19T07:24:51;11.80;99.90
19555;DHT22;9924;50.828;6.440;2023-11-19T07:27:19;11.90;99.90
19555;DHT22;9924;50.828;6.440;2023-11-19T07:29:45;11.90;99.90
19555;DHT22;9924;50.828;6.440;2023-11-19T07:32:11;11.90;99.90
19555;DHT22;9924;50.828;6.440;2023-11-19T07:34:39;11.90;99.90
19555;DHT22;9924;50.828;6.440;2023-11-19T07:37:05;11.90;99.90
19555;DHT22;9924;50.828;6.440;2023-11-19T07:39:31;11.90;99.90
19555;DHT22;9924;50.828;6.440;2023-11-19T07:41:58;11.90;99.90
19555;DHT22;9924;50.828;6.440;2023-11-19T07:44:24;12.00;99.90
19555;DHT22;9924;50.828;6.440;2023-11-19T07:46:51;12.00;99.90
19555;DHT22;9924;50.828;6.440;2023-11-19T07:49:17;12.00;99.90
19555;DHT22;9924;50.828;6.440;2023-11-19T07:51:43;12.00;99.90
19555;DHT22;9924;50.828;6.440;2023-11-19T07:54:09;12.00;99.90
19555;DHT22;9924;50.828;6.440;2023-11-19T07:56:34;12.00;99.90
19555;DHT22;9924;50.828;6.440;2023-11-19T07:59:03;12.00;99.90
19555;DHT22;9924;50.828;6.440;2023-11-19T08:01:29;12.00;99.90
19555;DHT22;9924;50.828;6.440;2023-11-19T08:03:55;12.00;99.90
19555;DHT22;9924;50.828;6.440;2023-11-19T08:06:21;12.00;99.90
19555;DHT22;9924;50.828;6.440;2023-11-19T08:08:47;12.00;99.90
19555;DHT22;9924;50.828;6.440;2023-11-19T08:11:14;12.00;99.90
19555;DHT22;9924;50.828;6.440;2023-11-19T08:13:40;12.00;99.90
19555;DHT22;9924;50.828;6.440;2023-11-19T08:16:06;12.00;99.90
19555;DHT22;9924;50.828;6.440;2023-11-19T08:18:32;12.00;99.90
19555;DHT22;9924;50.828;6.440;2023-11-19T08:20:58;12.00;99.90
19555;DHT22;9924;50.828;6.440;2023-11-19T08:23:27;12.00;99.90
19555;DHT22;9924;50.828;6.440;2023-11-19T08:25:54;12.10;99.90
19555;DHT22;9924;50.828;6.440;2023-11-19T08:28:20;12.00;99.90
19555;DHT22;9924;50.828;6.440;2023-11-19T08:30:46;12.10;99.90
19555;DHT22;9924;50.828;6.440;2023-11-19T08:33:11;12.10;99.90
19555;DHT22;9924;50.828;6.440;2023-11-19T08:35:37;12.10;99.90
19555;DHT22;9924;50.828;6.440;2023-11-19T08:38:03;12.10;99.90
19555;DHT22;9924;50.828;6.440;2023-11-19T08:40:29;12.20;99.90
19555;DHT22;9924;50.828;6.440;2023-11-19T08:42:56;12.20;99.90
19555;DHT22;9924;50.828;6.440;2023-11-19T08:45:22;12.20;99.90
19555;DHT22;9924;50.828;6.440;2023-11-19T08:47:48;12.20;99.90
19555;DHT22;9924;50.828;6.440;2023-11-19T08:50:14;12.20;99.90
19555;DHT22;9924;50.828;6.440;2023-11-19T08:52:40;12.30;99.90
19555;DHT22;9924;50.828;6.440;2023-11-19T08:55:06;12.30;99.90
19555;DHT22;9924;50.828;6.440;2023-11-19T08:57:32;12.30;99.90
19555;DHT22;9924;50.828;6.440;2023-11-19T09:00:01;12.30;99.90
19555;DHT22;9924;50.828;6.440;2023-11-19T09:02:28;12.40;99.90
19555;DHT22;9924;50.828;6.440;2023-11-19T09:04:54;12.40;99.90
19555;DHT22;9924;50.828;6.440;2023-11-19T09:07:20;12.50;99.90
19555;DHT22;9924;50.828;6.440;2023-11-19T09:09:47;12.60;99.90
19555;DHT22;9924;50.828;6.440;2023-11-19T09:12:12;12.70;99.90
19555;DHT22;9924;50.828;6.440;2023-11-19T09:14:39;12.90;99.90
19555;DHT22;9924;50.828;6.440;2023-11-19T09:17:05;13.10;99.90
19555;DHT22;9924;50.828;6.440;2023-11-19T09:19:32;13.10;99.90
19555;DHT22;9924;50.828;6.440;2023-11-19T09:22:01;13.30;99.90
19555;DHT22;9924;50.828;6.440;2023-11-19T09:24:28;13.50;99.90
19555;DHT22;9924;50.828;6.440;2023-11-19T09:26:54;13.70;99.90
19555;DHT22;9924;50.828;6.440;2023-11-19T09:29:22;13.80;99.90
19555;DHT22;9924;50.828;6.440;2023-11-19T09:31:48;14.00;99.90
19555;DHT22;9924;50.828;6.440;2023-11-19T09:34:14;14.00;99.90
19555;DHT22;9924;50.828;6.440;2023-11-19T09:36:39;14.10;99.90
19555;DHT22;9924;50.828;6.440;2023-11-19T09:39:10;14.10;99.90
19555;DHT22;9924;50.828;6.440;2023-11-19T09:41:36;14.20;99.90
19555;DHT22;9924;50.828;6.440;2023-11-19T09:44:02;14.30;99.90
19555;DHT22;9924;50.828;6.440;2023-11-19T09:46:29;14.40;99.90
19555;DHT22;9924;50.828;6.440;2023-11-19T09:48:56;14.70;99.90
19555;DHT22;9924;50.828;6.440;2023-11-19T09:51:25;14.70;99.90
19555;DHT22;9924;50.828;6.440;2023-11-19T09:53:51;14.80;99.90
19555;DHT22;9924;50.828;6.440;2023-11-19T09:56:17;14.80;99.90
19555;DHT22;9924;50.828;6.440;2023-11-19T09:58:44;14.90;99.90
19555;DHT22;9924;50.828;6.440;2023-11-19T10:01:10;14.90;99.90
19555;DHT22;9924;50.828;6.440;2023-11-19T10:03:39;15.10;99.90
19555;DHT22;9924;50.828;6.440;2023-11-19T10:06:07;15.10;99.90
19555;DHT22;9924;50.828;6.440;2023-11-19T10:08:37;15.00;99.90
19555;DHT22;9924;50.828;6.440;2023-11-19T10:11:08;15.20;99.90
19555;DHT22;9924;50.828;6.440;2023-11-19T10:13:36;15.30;99.90
19555;DHT22;9924;50.828;6.440;2023-11-19T10:18:34;15.40;99.90
19555;DHT22;9924;50.828;6.440;2023-11-19T10:21:06;15.50;99.90
19555;DHT22;9924;50.828;6.440;2023-11-19T10:23:54;15.10;99.90
19555;DHT22;9924;50.828;6.440;2023-11-19T10:26:22;14.40;99.90
19555;DHT22;9924;50.828;6.440;2023-11-19T10:28:49;14.60;99.90
19555;DHT22;9924;50.828;6.440;2023-11-19T10:31:20;15.10;99.90
19555;DHT22;9924;50.828;6.440;2023-11-19T10:33:52;15.30;99.90
19555;DHT22;9924;50.828;6.440;2023-11-19T10:36:19;15.70;99.90
19555;DHT22;9924;50.828;6.440;2023-11-19T10:38:55;15.80;99.90
19555;DHT22;9924;50.828;6.440;2023-11-19T10:43:55;15.50;99.90
19555;DHT22;9924;50.828;6.440;2023-11-19T10:46:20;15.60;99.90
19555;DHT22;9924;50.828;6.440;2023-11-19T10:48:48;15.70;99.90
19555;DHT22;9924;50.828;6.440;2023-11-19T10:51:18;15.90;99.90
19555;DHT22;9924;50.828;6.440;2023-11-19T10:53:49;15.80;99.90
19555;DHT22;9924;50.828;6.440;2023-11-19T10:56:20;15.70;99.90
19555;DHT22;9924;50.828;6.440;2023-11-19T10:58:50;15.50;99.90
19555;DHT22;9924;50.828;6.440;2023-11-19T11:01:19;15.50;99.90
19555;DHT22;9924;50.828;6.440;2023-11-19T11:03:51;15.50;99.90
19555;DHT22;9924;50.828;6.440;2023-11-19T11:06:22;15.40;99.90
19555;DHT22;9924;50.828;6.440;2023-11-19T11:08:48;15.30;99.90
19555;DHT22;9924;50.828;6.440;2023-11-19T11:11:15;14.80;99.90
19555;DHT22;9924;50.828;6.440;2023-11-19T11:13:47;14.50;99.90
19555;DHT22;9924;50.828;6.440;2023-11-19T11:16:18;14.80;99.90
19555;DHT22;9924;50.828;6.440;2023-11-19T11:18:46;14.90;99.90
19555;DHT22;9924;50.828;6.440;2023-11-19T11:21:21;14.90;99.90
19555;DHT22;9924;50.828;6.440;2023-11-19T11:27:03;14.80;99.90
19555;DHT22;9924;50.828;6.440;2023-11-19T11:32:38;14.60;99.90
19555;DHT22;9924;50.828;6.440;2023-11-19T11:35:33;14.90;99.90
19555;DHT22;9924;50.828;6.440;2023-11-19T11:38:06;15.00;99.90
19555;DHT22;9924;50.828;6.440;2023-11-19T11:40:33;14.90;99.90
19555;DHT22;9924;50.828;6.440;2023-11-19T11:42:59;14.90;99.90
19555;DHT22;9924;50.828;6.440;2023-11-19T11:45:40;14.90;99.90
19555;DHT22;9924;50.828;6.440;2023-11-19T11:48:15;15.00;99.90
19555;DHT22;9924;50.828;6.440;2023-11-19T11:50:56;15.30;99.90
19555;DHT22;9924;50.828;6.440;2023-11-19T11:53:25;15.30;99.90
19555;DHT22;9924;50.828;6.440;2023-11-19T11:55:52;15.50;99.90
19555;DHT22;9924;50.828;6.440;2023-11-19T11:58:19;15.70;99.90
19555;DHT22;9924;50.828;6.440;2023-11-19T12:00:47;15.80;99.90
19555;DHT22;9924;50.828;6.440;2023-11-19T12:03:14;15.90;99.90
19555;DHT22;9924;50.828;6.440;2023-11-19T12:05:45;16.30;99.90
19555;DHT22;9924;50.828;6.440;2023-11-19T12:08:12;16.40;99.90
19555;DHT22;9924;50.828;6.440;2023-11-19T12:13:20;16.60;99.90
19555;DHT22;9924;50.828;6.440;2023-11-19T12:18:29;16.50;99.90
19555;DHT22;9924;50.828;6.440;2023-11-19T12:21:00;16.30;99.90
19555;DHT22;9924;50.828;6.440;2023-11-19T12:23:27;16.20;99.90
19555;DHT22;9924;50.828;6.440;2023-11-19T12:25:54;15.90;99.90
19555;DHT22;9924;50.828;6.440;2023-11-19T12:28:21;16.00;99.90
19555;DHT22;9924;50.828;6.440;2023-11-19T12:30:50;16.40;99.90
19555;DHT22;9924;50.828;6.440;2023-11-19T12:33:16;16.50;99.90
19555;DHT22;9924;50.828;6.440;2023-11-19T12:35:47;16.60;99.90
19555;DHT22;9924;50.828;6.440;2023-11-19T12:38:23;16.90;99.90
19555;DHT22;9924;50.828;6.440;2023-11-19T12:41:09;16.70;99.90
19555;DHT22;9924;50.828;6.440;2023-11-19T12:43:39;16.10;99.90
19555;DHT22;9924;50.828;6.440;2023-11-19T12:46:23;15.80;99.90
19555;DHT22;9924;50.828;6.440;2023-11-19T12:48:50;16.10;99.90
19555;DHT22;9924;50.828;6.440;2023-11-19T12:51:16;16.10;99.90
19555;DHT22;9924;50.828;6.440;2023-11-19T12:53:52;16.30;99.90
19555;DHT22;9924;50.828;6.440;2023-11-19T12:56:23;16.40;99.90
19555;DHT22;9924;50.828;6.440;2023-11-19T12:58:50;16.50;99.90
19555;DHT22;9924;50.828;6.440;2023-11-19T13:01:19;16.30;99.90
19555;DHT22;9924;50.828;6.440;2023-11-19T13:03:46;16.30;99.90
19555;DHT22;9924;50.828;6.440;2023-11-19T13:06:13;16.60;99.90
19555;DHT22;9924;50.828;6.440;2023-11-19T13:08:44;16.30;99.90
19555;DHT22;9924;50.828;6.440;2023-11-19T13:11:12;16.00;99.90
19555;DHT22;9924;50.828;6.440;2023-11-19T13:13:58;15.70;99.90
19555;DHT22;9924;50.828;6.440;2023-11-19T13:16:25;15.80;99.90
19555;DHT22;9924;50.828;6.440;2023-11-19T13:18:51;16.30;99.90
19555;DHT22;9924;50.828;6.440;2023-11-19T13:21:17;16.30;99.90
19555;DHT22;9924;50.828;6.440;2023-11-19T13:23:44;16.20;99.90
19555;DHT22;9924;50.828;6.440;2023-11-19T13:26:10;16.30;99.90
19555;DHT22;9924;50.828;6.440;2023-11-19T13:28:37;16.40;99.90
19555;DHT22;9924;50.828;6.440;2023-11-19T13:31:03;16.40;99.90
19555;DHT22;9924;50.828;6.440;2023-11-19T13:33:29;16.30;99.90
19555;DHT22;9924;50.828;6.440;2023-11-19T13:35:56;16.20;99.90
19555;DHT22;9924;50.828;6.440;2023-11-19T13:38:22;16.00;99.90
19555;DHT22;9924;50.828;6.440;2023-11-19T13:40:51;15.70;99.90
19555;DHT22;9924;50.828;6.440;2023-11-19T13:43:17;15.30;99.90
19555;DHT22;9924;50.828;6.440;2023-11-19T13:45:43;15.10;99.90
19555;DHT22;9924;50.828;6.440;2023-11-19T13:48:09;14.90;99.90
19555;DHT22;9924;50.828;6.440;2023-11-19T13:50:35;14.70;99.90
19555;DHT22;9924;50.828;6.440;2023-11-19T13:53:00;14.50;99.90
19555;DHT22;9924;50.828;6.440;2023-11-19T13:55:26;14.40;99.90
19555;DHT22;9924;50.828;6.440;2023-11-19T13:57:53;14.40;99.90
19555;DHT22;9924;50.828;6.440;2023-11-19T14:00:19;14.30;99.90
19555;DHT22;9924;50.828;6.440;2023-11-19T14:02:46;14.20;99.90
19555;DHT22;9924;50.828;6.440;2023-11-19T14:05:13;14.10;99.90
19555;DHT22;9924;50.828;6.440;2023-11-19T14:07:41;14.00;99.90
19555;DHT22;9924;50.828;6.440;2023-11-19T14:10:07;14.00;99.90
19555;DHT22;9924;50.828;6.440;2023-11-19T14:12:39;13.90;99.90
19555;DHT22;9924;50.828;6.440;2023-11-19T14:15:06;13.80;99.90
19555;DHT22;9924;50.828;6.440;2023-11-19T14:17:33;13.70;99.90
19555;DHT22;9924;50.828;6.440;2023-11-19T14:20:00;13.60;99.90
19555;DHT22;9924;50.828;6.440;2023-11-19T14:22:26;13.50;99.90
19555;DHT22;9924;50.828;6.440;2023-11-19T14:24:52;13.40;99.90
19555;DHT22;9924;50.828;6.440;2023-11-19T14:27:18;13.30;99.90
19555;DHT22;9924;50.828;6.440;2023-11-19T14:29:44;13.30;99.90
19555;DHT22;9924;50.828;6.440;2023-11-19T14:32:12;13.20;99.90
19555;DHT22;9924;50.828;6.440;2023-11-19T14:34:38;13.10;99.90
19555;DHT22;9924;50.828;6.440;2023-11-19T14:37:04;13.00;99.90
19555;DHT22;9924;50.828;6.440;2023-11-19T14:39:30;12.90;99.90
19555;DHT22;9924;50.828;6.440;2023-11-19T14:41:59;12.80;99.90
19555;DHT22;9924;50.828;6.440;2023-11-19T14:44:29;12.70;99.90
19555;DHT22;9924;50.828;6.440;2023-11-19T14:46:55;12.60;99.90
19555;DHT22;9924;50.828;6.440;2023-11-19T14:49:21;12.60;99.90
19555;DHT22;9924;50.828;6.440;2023-11-19T14:51:49;12.50;99.90
19555;DHT22;9924;50.828;6.440;2023-11-19T14:54:15;12.50;99.90
19555;DHT22;9924;50.828;6.440;2023-11-19T14:56:41;12.40;99.90
19555;DHT22;9924;50.828;6.440;2023-11-19T14:59:07;12.40;99.90
19555;DHT22;9924;50.828;6.440;2023-11-19T15:01:33;12.40;99.90
19555;DHT22;9924;50.828;6.440;2023-11-19T15:03:58;12.40;99.90
19555;DHT22;9924;50.828;6.440;2023-11-19T15:06:25;12.50;99.90
19555;DHT22;9924;50.828;6.440;2023-11-19T15:08:55;12.50;99.90
19555;DHT22;9924;50.828;6.440;2023-11-19T15:11:22;12.50;99.90
19555;DHT22;9924;50.828;6.440;2023-11-19T15:13:48;12.50;99.90
19555;DHT22;9924;50.828;6.440;2023-11-19T15:16:14;12.40;99.90
19555;DHT22;9924;50.828;6.440;2023-11-19T15:18:42;12.30;99.90
19555;DHT22;9924;50.828;6.440;2023-11-19T15:21:08;12.20;99.90
19555;DHT22;9924;50.828;6.440;2023-11-19T15:23:34;12.20;99.90
19555;DHT22;9924;50.828;6.440;2023-11-19T15:26:00;12.10;99.90
19555;DHT22;9924;50.828;6.440;2023-11-19T15:28:26;12.00;99.90
19555;DHT22;9924;50.828;6.440;2023-11-19T15:30:52;12.00;99.90
19555;DHT22;9924;50.828;6.440;2023-11-19T15:33:18;12.00;99.90
19555;DHT22;9924;50.828;6.440;2023-11-19T15:35:43;12.00;99.90
19555;DHT22;9924;50.828;6.440;2023-11-19T15:38:09;11.90;99.90
19555;DHT22;9924;50.828;6.440;2023-11-19T15:40:35;11.90;99.90
19555;DHT22;9924;50.828;6.440;2023-11-19T15:43:04;11.80;99.90
19555;DHT22;9924;50.828;6.440;2023-11-19T15:45:30;11.80;99.90
19555;DHT22;9924;50.828;6.440;2023-11-19T15:47:55;11.80;99.90
19555;DHT22;9924;50.828;6.440;2023-11-19T15:50:21;11.80;99.90
19555;DHT22;9924;50.828;6.440;2023-11-19T15:52:47;11.80;99.90
19555;DHT22;9924;50.828;6.440;2023-11-19T15:55:13;11.70;99.90
19555;DHT22;9924;50.828;6.440;2023-11-19T15:57:39;11.70;99.90
19555;DHT22;9924;50.828;6.440;2023-11-19T16:00:06;11.70;99.90
19555;DHT22;9924;50.828;6.440;2023-11-19T16:02:36;11.80;99.90